ADDS METAR Data INFO
IDs: Format: Raw Decoded Include TAF

Data at: 0545 UTC 11 Dec 2017

KFOE 110453Z AUTO 00000KT 10SM CLR 02/M07 A3012 RMK AO2 SLP204 T00171067
KFOE 110353Z 21004KT 10SM CLR 05/M06 A3013 RMK AO2 SLP206 T00501061
KFOE 110253Z 00000KT 10SM CLR 05/M06 A3014 RMK AO2 SLP209 T00501061 58001
KFOE 110153Z 22006KT 9SM CLR 05/M06 A3015 RMK AO2 SLP213 T00501056
KFOE 110053Z 25003KT 10SM CLR 06/M06 A3014 RMK AO2 SLP212 T00561061
KFOE 102353Z 26006KT 10SM CLR 07/M06 A3014 RMK AO2 SLP211 T00721061 10161 20072 51005
KFOE 102253Z 30008KT 10SM CLR 12/M05 A3014 RMK AO2 SLP210 T01171050
KFOE 102153Z 31009KT 10SM CLR 16/M05 A3013 RMK AO2 SLP206 T01611050
KFOE 102053Z 29013KT 10SM CLR 16/M05 A3013 RMK AO2 SLP204 T01611050 56009
KFOE 101953Z 30011KT 10SM CLR 15/M06 A3013 RMK AO2 SLP205 T01501056
KFOE 101853Z 32012KT 10SM CLR 15/M06 A3014 RMK AO2 SLP209 T01501056
KFOE 101753Z 31011KT 10SM CLR 13/M06 A3016 RMK AO2 SLP217 T01331056 10133 20033 51009
KFOE 101653Z 31013KT 10SM CLR 12/M07 A3016 RMK AO2 SLP218 T01171067
KFOE 101553Z 31014KT 10SM CLR 10/M07 A3015 RMK AO2 SLP218 T01001067
KFOE 101453Z 31012KT 10SM CLR 07/M07 A3013 RMK AO2 SLP210 T00721067 53012
KFOE 101353Z 29013KT 10SM CLR 05/M07 A3011 RMK AO2 SLP205 T00501072
KFOE 101253Z 30013KT 10SM CLR 04/M07 A3010 RMK AO2 SLP199 T00441067
KFOE 101153Z 29008KT 10SM CLR 03/M06 A3009 RMK AO2 SLP198 T00331061 10033 21033 55000
KFOE 101053Z AUTO 26007KT 10SM CLR 00/M06 A3008 RMK AO2 SLP193 T00001061
KFOE 100953Z AUTO 25006KT 10SM CLR 01/M05 A3008 RMK AO2 SLP190 T00111050
KFOE 100853Z AUTO 24010KT 10SM CLR 02/M05 A3009 RMK AO2 SLP196 T00171050 56020
KFOE 100753Z AUTO 20007KT 10SM CLR M01/M06 A3011 RMK AO2 SLP202 T10061061
KFOE 100653Z AUTO 20008KT 10SM CLR M02/M07 A3012 RMK AO2 SLP207 T10171067
KFOE 100553Z AUTO 19006KT 10SM CLR M03/M07 A3015 RMK AO2 SLP220 T10331072 10011 21044 400781044 58016
KFOE 100453Z AUTO 20006KT 10SM CLR M03/M07 A3018 RMK AO2 SLP229 T10331072
KFOE 100353Z 20006KT 10SM CLR M04/M08 A3018 RMK AO2 SLP230 T10441083
KFOE 100253Z 19003KT 10SM CLR M04/M08 A3020 RMK AO2 SLP238 T10391083 58007
KFOE 100153Z 25005KT 10SM CLR M03/M08 A3022 RMK AO2 SLP244 T10281083
KFOE 100053Z 28005KT 10SM CLR 01/M07 A3022 RMK AO2 SLP242 T00061072
KFOE 092353Z 26003KT 10SM CLR 00/M08 A3022 RMK AO2 SLP244 T00001078 10078 21006 53014
KFOE 092253Z 31008KT 10SM CLR 03/M07 A3021 RMK AO2 SLP238 T00331067
KFOE 092153Z 32013KT 10SM CLR 07/M07 A3019 RMK AO2 SLP232 T00671067
KFOE 092053Z 32015G20KT 10SM CLR 07/M07 A3018 RMK AO2 SLP227 T00721067 55003
KFOE 091953Z 31015KT 10SM CLR 07/M07 A3018 RMK AO2 SLP224 T00721067
KFOE 091853Z 32017KT 10SM CLR 07/M06 A3018 RMK AO2 SLP228 T00671056
KFOE 091753Z 32018G23KT 10SM CLR 06/M05 A3019 RMK AO2 SLP232 T00561050 10056 21017 51021